createdAt,value
2018-12-19T00:03:02.838Z,10.37
2018-12-19T00:06:06.470Z,10.63
2018-12-19T00:09:10.011Z,12.88
2018-12-19T00:12:13.709Z,8.00
2018-12-19T00:15:18.353Z,9.73
2018-12-19T00:18:22.018Z,8.33
2018-12-19T00:21:25.674Z,13.50
2018-12-19T00:24:29.648Z,8.40
2018-12-19T00:27:33.313Z,10.48
2018-12-19T00:30:36.772Z,11.20
2018-12-19T00:33:40.367Z,11.18
2018-12-19T00:36:43.925Z,8.60
2018-12-19T00:39:47.438Z,10.07
2018-12-19T00:48:41.058Z,9.80
2018-12-19T00:51:44.614Z,9.10
2018-12-19T00:54:48.144Z,9.87
2018-12-19T00:57:51.930Z,9.70
2018-12-19T01:00:55.425Z,10.40
2018-12-19T01:03:58.945Z,9.57
2018-12-19T01:07:02.436Z,9.57
2018-12-19T01:10:06.454Z,9.40
2018-12-19T01:13:11.640Z,11.47
2018-12-19T01:16:15.164Z,10.60
2018-12-19T01:19:18.725Z,11.67
2018-12-19T01:22:22.359Z,12.13
2018-12-19T01:25:26.201Z,10.47
2018-12-19T01:28:29.760Z,12.63
2018-12-19T01:31:33.335Z,8.70
2018-12-19T01:34:37.286Z,11.07
2018-12-19T01:37:42.118Z,10.83
2018-12-19T01:40:45.739Z,8.60
2018-12-19T01:43:50.167Z,11.67
2018-12-19T01:46:53.834Z,11.80
2018-12-19T01:50:00.685Z,11.03
2018-12-19T01:53:04.223Z,10.60
2018-12-19T01:56:09.394Z,12.10
2018-12-19T01:59:12.903Z,11.73
2018-12-19T02:02:16.713Z,11.15
2018-12-19T02:05:20.290Z,13.37
2018-12-19T02:08:23.860Z,13.10
2018-12-19T02:11:27.504Z,12.80
2018-12-19T02:14:31.308Z,11.17
2018-12-19T02:17:34.943Z,12.33
2018-12-19T02:20:38.498Z,10.30
2018-12-19T02:23:42.893Z,12.63
2018-12-19T02:26:46.510Z,12.13
2018-12-19T02:29:50.814Z,13.10
2018-12-19T02:32:54.417Z,12.30
2018-12-19T02:35:57.984Z,12.33
2018-12-19T02:39:01.482Z,16.37
2018-12-19T02:42:04.975Z,13.03
2018-12-19T02:45:08.682Z,15.10
2018-12-19T02:48:12.358Z,13.25
2018-12-19T02:51:16.954Z,13.47
2018-12-19T02:54:20.472Z,12.50
2018-12-19T02:57:24.021Z,14.13
2018-12-19T03:00:27.572Z,14.23
2018-12-19T03:03:31.046Z,12.90
2018-12-19T03:06:34.532Z,15.35
2018-12-19T03:09:42.864Z,15.27
2018-12-19T03:12:43.668Z,15.80
2018-12-19T03:15:47.224Z,15.80
2018-12-19T03:18:50.818Z,14.10
2018-12-19T03:21:54.355Z,14.03
2018-12-19T03:24:57.898Z,15.60
2018-12-19T03:28:01.556Z,16.37
2018-12-19T03:31:05.098Z,16.30
2018-12-19T03:34:08.765Z,13.90
2018-12-19T03:37:12.172Z,16.60
2018-12-19T03:40:15.706Z,17.37
2018-12-19T03:43:19.239Z,18.80
2018-12-19T03:46:22.797Z,15.40
2018-12-19T03:49:26.620Z,17.37
2018-12-19T03:52:30.276Z,18.93
2018-12-19T03:55:33.799Z,17.57
2018-12-19T03:58:37.315Z,19.90
2018-12-19T04:01:41.033Z,19.33
2018-12-19T04:04:44.590Z,15.80
2018-12-19T04:07:48.459Z,22.00
2018-12-19T04:10:51.993Z,17.10
2018-12-19T04:13:56.246Z,15.50
2018-12-19T04:16:59.824Z,19.32
2018-12-19T04:20:03.689Z,16.52
2018-12-19T04:23:09.224Z,17.63
2018-12-19T04:26:12.647Z,16.60
2018-12-19T04:29:16.193Z,18.37
2018-12-19T04:32:19.831Z,18.30
2018-12-19T04:35:23.423Z,24.90
2018-12-19T04:38:27.242Z,19.77
2018-12-19T04:41:30.741Z,17.40
2018-12-19T04:44:34.290Z,21.53
2018-12-19T04:47:37.917Z,18.53
2018-12-19T04:50:41.474Z,17.93
2018-12-19T04:53:45.014Z,16.60
2018-12-19T04:56:48.540Z,22.40
2018-12-19T04:59:52.018Z,21.10
2018-12-19T05:02:55.925Z,20.02
2018-12-19T05:05:59.404Z,17.90
2018-12-19T05:09:03.643Z,21.87
2018-12-19T05:12:07.209Z,17.97
2018-12-19T05:15:10.729Z,18.00
2018-12-19T05:18:14.339Z,17.90
2018-12-19T05:21:17.798Z,19.80
2018-12-19T05:24:21.290Z,20.43
2018-12-19T05:27:24.844Z,18.47
2018-12-19T05:30:28.425Z,16.93
2018-12-19T05:33:32.037Z,21.27
2018-12-19T05:36:35.559Z,20.70
2018-12-19T05:39:39.083Z,17.90
2018-12-19T05:42:42.778Z,22.47
2018-12-19T05:45:46.409Z,21.20
2018-12-19T05:48:50.019Z,19.53
2018-12-19T05:51:53.734Z,19.43
2018-12-19T05:54:57.320Z,19.07
2018-12-19T05:58:00.982Z,17.87
2018-12-19T06:01:04.685Z,18.25
2018-12-19T06:04:08.288Z,19.87
2018-12-19T06:07:11.807Z,17.07
2018-12-19T06:10:15.434Z,20.20
2018-12-19T06:13:18.862Z,22.33
2018-12-19T06:16:22.482Z,18.20
2018-12-19T06:19:27.397Z,19.23
2018-12-19T06:22:30.952Z,23.40
2018-12-19T06:25:34.538Z,21.13
2018-12-19T06:28:38.097Z,20.80
2018-12-19T06:31:41.759Z,21.73
2018-12-19T06:34:45.434Z,24.17
2018-12-19T06:37:48.921Z,21.40
2018-12-19T06:40:52.487Z,22.73
2018-12-19T06:43:56.247Z,21.00
2018-12-19T06:46:59.774Z,25.88
2018-12-19T06:50:03.488Z,24.10
2018-12-19T06:53:07.111Z,19.10
2018-12-19T06:56:10.651Z,25.33
2018-12-19T06:59:14.328Z,25.33
2018-12-19T07:02:17.834Z,22.67
2018-12-19T07:05:21.383Z,26.83
2018-12-19T07:08:24.937Z,25.07
2018-12-19T07:11:28.697Z,27.00
2018-12-19T07:14:32.333Z,26.43
2018-12-19T07:17:36.782Z,25.17
2018-12-19T07:20:40.308Z,23.50
2018-12-19T07:23:44.041Z,24.70
2018-12-19T07:26:47.614Z,23.70
2018-12-19T07:29:51.107Z,24.60
2018-12-19T07:32:54.878Z,26.50
2018-12-19T07:35:58.363Z,30.93
2018-12-19T07:39:01.941Z,25.72
2018-12-19T07:42:05.622Z,26.57
2018-12-19T07:45:09.252Z,26.52
2018-12-19T07:48:12.989Z,26.73
2018-12-19T07:51:16.566Z,27.07
2018-12-19T07:54:20.077Z,27.97
2018-12-19T07:57:23.703Z,23.97
2018-12-19T08:00:27.625Z,27.40
2018-12-19T08:03:31.421Z,22.53
2018-12-19T08:06:35.122Z,22.77
2018-12-19T08:09:38.750Z,28.67
2018-12-19T08:12:42.407Z,25.27
2018-12-19T08:15:46.023Z,31.03
2018-12-19T08:18:49.477Z,29.17
2018-12-19T08:21:53.062Z,25.20
2018-12-19T08:24:56.594Z,25.68
2018-12-19T08:28:00.152Z,29.05
2018-12-19T08:31:03.723Z,24.90
2018-12-19T08:34:07.552Z,28.40
2018-12-19T08:37:11.113Z,25.70
2018-12-19T08:40:14.635Z,28.80
2018-12-19T08:43:18.206Z,31.03
2018-12-19T08:46:21.723Z,27.43
2018-12-19T08:49:25.443Z,27.55
2018-12-19T08:52:28.977Z,28.93
2018-12-19T08:55:32.486Z,26.93
2018-12-19T08:58:35.958Z,29.20
2018-12-19T09:01:39.665Z,26.10
2018-12-19T09:04:43.357Z,27.07
2018-12-19T09:07:46.992Z,26.33
2018-12-19T09:10:50.632Z,26.73
2018-12-19T09:13:54.158Z,25.93
2018-12-19T09:16:57.700Z,25.00
2018-12-19T09:20:01.702Z,27.05
2018-12-19T09:23:05.362Z,27.00
2018-12-19T09:26:08.991Z,26.43
2018-12-19T09:29:12.598Z,24.57
2018-12-19T09:32:16.955Z,28.23
2018-12-19T09:35:20.621Z,26.83
2018-12-19T09:38:24.193Z,23.50
2018-12-19T09:41:27.905Z,24.83
2018-12-19T09:44:31.496Z,24.20
2018-12-19T09:47:35.291Z,24.93
2018-12-19T09:50:38.789Z,25.67
2018-12-19T09:53:42.662Z,24.13
2018-12-19T09:56:46.387Z,26.57
2018-12-19T09:59:50.035Z,22.50
2018-12-19T10:02:53.712Z,23.73
2018-12-19T10:05:57.350Z,24.77
2018-12-19T10:09:00.857Z,23.83
2018-12-19T10:12:04.486Z,23.97
2018-12-19T10:15:08.335Z,23.70
2018-12-19T10:18:11.841Z,27.23
2018-12-19T10:21:15.416Z,21.10
2018-12-19T10:24:18.922Z,26.93
2018-12-19T10:27:23.927Z,21.07
2018-12-19T10:30:27.615Z,19.70
2018-12-19T10:33:31.185Z,20.07
2018-12-19T10:36:37.970Z,23.07
2018-12-19T10:39:41.565Z,21.30
2018-12-19T10:42:45.126Z,20.87
2018-12-19T10:45:48.745Z,20.87
2018-12-19T10:48:52.290Z,20.77
2018-12-19T10:51:56.876Z,21.10
2018-12-19T10:55:00.520Z,21.97
2018-12-19T10:58:04.165Z,21.50
2018-12-19T11:01:07.696Z,27.77
2018-12-19T11:04:11.326Z,23.50
2018-12-19T11:07:14.871Z,20.23
2018-12-19T11:10:18.555Z,18.80
2018-12-19T11:13:22.127Z,16.73
2018-12-19T11:22:00.415Z,19.10
2018-12-19T11:25:04.266Z,17.37
2018-12-19T11:28:07.760Z,20.20
2018-12-19T11:31:12.328Z,18.90
2018-12-19T11:34:15.800Z,17.10
2018-12-19T11:37:19.511Z,17.10
2018-12-19T11:40:23.160Z,17.87
2018-12-19T11:43:26.966Z,17.40
2018-12-19T11:46:30.558Z,18.33
2018-12-19T11:49:34.156Z,20.43
2018-12-19T11:52:37.736Z,16.97
2018-12-19T11:55:41.230Z,17.52
2018-12-19T11:58:44.940Z,18.62
2018-12-19T12:01:48.413Z,17.70
2018-12-19T12:04:52.441Z,16.80
2018-12-19T12:07:56.936Z,18.75
2018-12-19T12:11:00.733Z,16.70
2018-12-19T12:14:04.399Z,18.20
2018-12-19T12:17:08.824Z,19.60
2018-12-19T12:20:12.505Z,18.15
2018-12-19T12:23:16.136Z,17.13
2018-12-19T12:26:19.631Z,16.77
2018-12-19T12:29:23.140Z,13.27
2018-12-19T12:32:31.111Z,18.26
2018-12-19T12:35:34.695Z,19.10
2018-12-19T12:38:38.366Z,16.50
2018-12-19T12:41:42.067Z,17.77
2018-12-19T12:44:45.807Z,15.83
2018-12-19T12:47:49.330Z,16.63
2018-12-19T12:50:52.801Z,12.05
2018-12-19T12:53:57.038Z,16.90
2018-12-19T12:57:00.590Z,14.50
2018-12-19T13:00:04.430Z,14.20
2018-12-19T13:03:07.910Z,23.57
2018-12-19T13:06:11.550Z,18.55
2018-12-19T13:09:15.090Z,15.40
2018-12-19T13:12:18.629Z,18.03
2018-12-19T13:15:27.576Z,13.77
2018-12-19T13:18:31.076Z,14.77
2018-12-19T13:21:34.595Z,12.37
2018-12-19T13:24:38.146Z,17.53
2018-12-19T13:27:42.921Z,14.00
2018-12-19T13:30:46.602Z,13.50
2018-12-19T13:33:50.108Z,19.67
2018-12-19T13:36:53.611Z,12.87
2018-12-19T13:39:57.255Z,15.60
2018-12-19T13:43:00.853Z,17.17
2018-12-19T13:46:04.512Z,15.37
2018-12-19T13:49:08.044Z,15.17
2018-12-19T13:52:11.602Z,16.37
2018-12-19T13:55:15.209Z,15.43
2018-12-19T13:58:18.785Z,20.13
2018-12-19T14:01:22.285Z,18.20
2018-12-19T14:04:25.986Z,12.93
2018-12-19T14:07:29.607Z,14.60
2018-12-19T14:10:33.120Z,16.40
2018-12-19T14:13:36.613Z,18.67
2018-12-19T14:16:40.098Z,14.37
2018-12-19T14:19:43.717Z,16.60
2018-12-19T14:22:47.477Z,16.53
2018-12-19T14:25:50.985Z,16.80
2018-12-19T14:28:54.512Z,15.20
2018-12-19T14:31:58.132Z,17.90
2018-12-19T14:35:01.813Z,18.02
2018-12-19T14:38:05.352Z,20.87
2018-12-19T14:41:08.866Z,22.42
2018-12-19T14:44:12.312Z,20.10
2018-12-19T14:47:15.917Z,18.17
2018-12-19T14:50:19.392Z,19.70
2018-12-19T14:53:23.068Z,18.73
2018-12-19T14:56:27.041Z,22.07
2018-12-19T14:59:30.556Z,24.40
2018-12-19T15:02:34.056Z,20.40
2018-12-19T15:05:37.669Z,22.03
2018-12-19T15:08:41.290Z,21.02
2018-12-19T15:11:44.841Z,21.13
2018-12-19T15:14:48.346Z,20.77
2018-12-19T15:17:52.481Z,21.73
2018-12-19T15:20:56.430Z,21.90
2018-12-19T15:23:59.899Z,19.70
2018-12-19T15:27:03.510Z,25.20
2018-12-19T15:30:07.413Z,22.50
2018-12-19T15:33:11.169Z,22.77
2018-12-19T15:36:15.139Z,24.18
2018-12-19T15:39:18.720Z,23.57
2018-12-19T15:42:22.274Z,25.50
2018-12-19T15:45:25.802Z,19.00
2018-12-19T15:48:29.283Z,25.33
2018-12-19T15:51:32.867Z,21.80
2018-12-19T15:54:36.410Z,25.07
2018-12-19T15:57:39.941Z,23.00
2018-12-19T16:00:43.409Z,22.80
2018-12-19T16:03:47.009Z,23.93
2018-12-19T16:06:50.734Z,25.03
2018-12-19T16:09:54.320Z,26.50
2018-12-19T16:12:57.922Z,22.57
2018-12-19T16:16:01.580Z,26.35
2018-12-19T16:19:05.287Z,25.93
2018-12-19T16:22:09.003Z,24.13
2018-12-19T16:25:12.550Z,23.70
2018-12-19T16:28:16.550Z,22.53
2018-12-19T16:31:20.074Z,26.53
2018-12-19T16:34:23.884Z,26.27
2018-12-19T16:37:27.485Z,23.52
2018-12-19T16:40:31.121Z,24.77
2018-12-19T16:43:34.629Z,30.10
2018-12-19T16:46:38.206Z,30.83
2018-12-19T16:49:41.685Z,28.40
2018-12-19T16:52:45.246Z,27.40
2018-12-19T16:55:48.753Z,26.70
2018-12-19T16:58:55.615Z,32.98
2018-12-19T17:01:59.244Z,28.53
2018-12-19T17:05:02.864Z,25.73
2018-12-19T17:08:06.430Z,27.17
2018-12-19T17:11:09.991Z,29.13
2018-12-19T17:14:13.696Z,29.20
2018-12-19T17:17:17.215Z,30.37
2018-12-19T17:20:20.635Z,31.87
2018-12-19T17:23:24.087Z,29.87
2018-12-19T17:26:27.573Z,28.00
2018-12-19T17:29:31.070Z,28.93
2018-12-19T17:32:34.904Z,30.00
2018-12-19T17:35:38.443Z,30.00
2018-12-19T17:38:41.909Z,26.77
2018-12-19T17:41:45.345Z,27.50
2018-12-19T17:44:48.765Z,26.10
2018-12-19T17:47:52.740Z,27.42
2018-12-19T17:50:56.185Z,30.30
2018-12-19T17:53:59.680Z,27.45
2018-12-19T17:57:03.054Z,27.17
2018-12-19T18:00:06.861Z,27.33
2018-12-19T18:03:10.399Z,26.70
2018-12-19T18:06:13.869Z,27.95
2018-12-19T18:09:17.449Z,24.33
2018-12-19T18:12:21.032Z,27.20
2018-12-19T18:15:24.547Z,29.30
2018-12-19T18:18:27.996Z,26.87
2018-12-19T18:21:31.500Z,32.75
2018-12-19T18:24:34.950Z,35.83
2018-12-19T18:27:38.407Z,34.43
2018-12-19T18:30:41.891Z,29.20
2018-12-19T18:33:45.336Z,27.52
2018-12-19T18:36:48.829Z,26.30
2018-12-19T18:39:52.775Z,26.65
2018-12-19T18:42:56.314Z,31.43
2018-12-19T18:45:59.829Z,26.10
2018-12-19T18:49:03.951Z,22.87
2018-12-19T18:52:07.440Z,25.60
2018-12-19T18:55:11.041Z,27.93
2018-12-19T18:58:14.587Z,24.03
2018-12-19T19:01:18.136Z,23.03
2018-12-19T19:04:21.762Z,26.55
2018-12-19T19:07:25.470Z,25.83
2018-12-19T19:10:29.225Z,28.23
2018-12-19T19:13:32.859Z,26.85
2018-12-19T19:16:36.411Z,28.63
2018-12-19T19:19:39.882Z,27.70
2018-12-19T19:22:43.518Z,27.70
2018-12-19T19:25:46.973Z,24.17
2018-12-19T19:28:50.422Z,36.03
2018-12-19T19:31:54.203Z,31.37
2018-12-19T19:34:57.795Z,31.45
2018-12-19T19:38:01.387Z,29.97
2018-12-19T19:41:04.876Z,26.93
2018-12-19T19:44:08.315Z,27.77
2018-12-19T19:47:11.821Z,34.43
2018-12-19T19:50:15.252Z,29.35
2018-12-19T19:53:18.776Z,28.95
2018-12-19T19:56:22.307Z,26.63
2018-12-19T19:59:25.763Z,28.77
2018-12-19T20:02:29.427Z,31.03
2018-12-19T20:05:32.955Z,27.32
2018-12-19T20:08:36.477Z,27.73
2018-12-19T20:11:39.995Z,28.17
2018-12-19T20:14:43.498Z,30.87
2018-12-19T20:17:46.946Z,26.70
2018-12-19T20:20:50.605Z,26.07
2018-12-19T20:23:54.188Z,25.47
2018-12-19T20:26:58.027Z,24.87
2018-12-19T20:30:01.522Z,24.70
2018-12-19T20:33:05.015Z,25.20
2018-12-19T20:36:08.484Z,27.23
2018-12-19T20:39:11.962Z,25.90
2018-12-19T20:42:15.428Z,24.80
2018-12-19T20:45:19.053Z,26.83
2018-12-19T20:48:22.527Z,23.43
2018-12-19T20:51:26.107Z,25.10
2018-12-19T20:54:29.667Z,25.67
2018-12-19T20:57:34.341Z,32.50
2018-12-19T21:00:37.899Z,25.97
2018-12-19T21:03:41.555Z,26.03
2018-12-19T21:06:44.987Z,26.93
2018-12-19T21:09:48.391Z,26.50
2018-12-19T21:12:52.922Z,26.00
2018-12-19T21:15:56.372Z,29.23
2018-12-19T21:18:59.856Z,27.37
2018-12-19T21:22:05.296Z,34.20
2018-12-19T21:25:08.883Z,30.33
2018-12-19T21:28:12.291Z,28.77
2018-12-19T21:31:15.727Z,31.27
2018-12-19T21:34:19.349Z,27.27
2018-12-19T21:37:23.106Z,29.23
2018-12-19T21:40:26.645Z,36.70
2018-12-19T21:43:30.081Z,31.47
2018-12-19T21:46:33.753Z,33.73
2018-12-19T21:49:37.384Z,31.10
2018-12-19T21:52:41.167Z,36.60
2018-12-19T21:55:44.751Z,33.20
2018-12-19T21:58:48.474Z,34.13
2018-12-19T22:01:52.927Z,31.50
2018-12-19T22:04:56.395Z,38.50
2018-12-19T22:08:00.009Z,34.20
2018-12-19T22:11:03.719Z,33.80
2018-12-19T22:14:07.251Z,39.10
2018-12-19T22:17:16.166Z,33.80
2018-12-19T22:20:19.776Z,33.10
2018-12-19T22:23:23.256Z,31.87
2018-12-19T22:26:26.849Z,32.37
2018-12-19T22:29:30.345Z,39.10
2018-12-19T22:32:33.963Z,34.03
2018-12-19T22:35:37.855Z,38.40
2018-12-19T22:38:41.477Z,41.23
2018-12-19T22:41:45.023Z,39.03
2018-12-19T22:44:48.743Z,33.73
2018-12-19T22:47:53.155Z,31.00
2018-12-19T22:50:56.781Z,34.33
2018-12-19T22:54:00.269Z,35.25
2018-12-19T22:57:03.959Z,35.90
2018-12-19T23:00:13.487Z,40.27
2018-12-19T23:03:17.013Z,38.13
2018-12-19T23:06:20.554Z,40.83
2018-12-19T23:09:24.266Z,33.88
2018-12-19T23:12:28.180Z,40.88
2018-12-19T23:15:31.749Z,37.13
2018-12-19T23:18:37.790Z,33.77
2018-12-19T23:21:41.543Z,37.23
2018-12-19T23:24:45.115Z,34.30
2018-12-19T23:27:48.588Z,39.13
2018-12-19T23:30:53.186Z,32.38
2018-12-19T23:33:56.841Z,37.77
2018-12-19T23:37:00.274Z,35.33
2018-12-19T23:40:04.311Z,35.00
2018-12-19T23:43:08.004Z,32.73
2018-12-19T23:46:11.651Z,36.60
2018-12-19T23:49:15.252Z,33.23
2018-12-19T23:52:18.821Z,34.37
2018-12-19T23:55:22.375Z,35.53
2018-12-19T23:58:26.089Z,34.70
